createdAt,value
2017-09-25T00:00:12.954Z,0
2017-09-25T00:02:12.675Z,0
2017-09-25T00:03:13.064Z,0
2017-09-25T00:04:27.317Z,0
2017-09-25T00:05:12.746Z,0
2017-09-25T00:06:13.182Z,0
2017-09-25T00:07:27.704Z,0
2017-09-25T00:08:13.133Z,0
2017-09-25T00:09:13.155Z,0
2017-09-25T00:10:27.451Z,0
2017-09-25T00:12:12.907Z,0
2017-09-25T00:13:12.943Z,0
2017-09-25T00:14:12.962Z,0
2017-09-25T00:15:12.983Z,0
2017-09-25T00:17:13.022Z,0
2017-09-25T00:18:13.360Z,0
2017-09-25T00:19:13.393Z,0
2017-09-25T00:20:27.677Z,0
2017-09-25T00:21:13.430Z,0
2017-09-25T00:22:13.456Z,0
2017-09-25T00:23:28.066Z,0
2017-09-25T00:24:12.861Z,0
2017-09-25T00:25:13.198Z,0
2017-09-25T00:26:28.133Z,0
2017-09-25T00:27:13.253Z,0
2017-09-25T00:28:28.181Z,0
2017-09-25T00:29:13.615Z,0
2017-09-25T00:30:13.634Z,0
2017-09-25T00:31:13.659Z,0
2017-09-25T00:32:13.680Z,0
2017-09-25T00:33:13.701Z,0
2017-09-25T00:35:13.743Z,0
2017-09-25T00:36:27.726Z,0
2017-09-25T00:38:28.093Z,0
2017-09-25T00:39:28.431Z,0
2017-09-25T00:40:13.863Z,0
2017-09-25T00:41:13.884Z,0
2017-09-25T00:42:13.585Z,0
2017-09-25T00:43:13.935Z,0
2017-09-25T00:44:13.955Z,0
2017-09-25T00:45:13.978Z,0
2017-09-25T00:46:13.679Z,0
2017-09-25T00:47:13.700Z,0
2017-09-25T00:48:14.044Z,0
2017-09-25T00:49:14.066Z,0
2017-09-25T00:50:14.145Z,0
2017-09-25T00:51:28.382Z,0
2017-09-25T00:52:14.136Z,0
2017-09-25T00:53:13.838Z,0
2017-09-25T00:55:13.886Z,0
2017-09-25T00:56:13.906Z,0
2017-09-25T00:57:14.255Z,0
2017-09-25T00:58:28.540Z,0
2017-09-25T00:59:14.292Z,0
2017-09-25T01:00:13.677Z,0
2017-09-25T01:01:14.018Z,0
2017-09-25T01:02:14.359Z,0
2017-09-25T01:03:14.440Z,0
2017-09-25T01:04:14.092Z,0
2017-09-25T01:05:14.438Z,0
2017-09-25T01:06:14.446Z,0
2017-09-25T01:07:14.153Z,0
2017-09-25T01:08:14.509Z,0
2017-09-25T01:09:29.109Z,0
2017-09-25T01:10:14.548Z,0
2017-09-25T01:11:14.575Z,0
2017-09-25T01:12:14.589Z,0
2017-09-25T01:13:14.606Z,0
2017-09-25T01:14:14.310Z,0
2017-09-25T01:15:14.655Z,0
2017-09-25T01:16:14.360Z,0
2017-09-25T01:17:14.379Z,0
2017-09-25T01:18:14.406Z,0
2017-09-25T01:19:14.431Z,0
2017-09-25T01:20:14.447Z,0
2017-09-25T01:21:14.156Z,0
2017-09-25T01:22:29.406Z,0
2017-09-25T01:23:29.426Z,0
2017-09-25T01:24:14.535Z,0
2017-09-25T01:25:14.560Z,0
2017-09-25T01:26:14.583Z,0
2017-09-25T01:27:14.603Z,0
2017-09-25T01:28:14.630Z,0
2017-09-25T01:29:14.653Z,0
2017-09-25T01:30:14.352Z,0
2017-09-25T01:31:15.012Z,0
2017-09-25T01:32:14.398Z,0
2017-09-25T01:33:15.063Z,0
2017-09-25T01:34:15.082Z,0
2017-09-25T01:35:15.099Z,0
2017-09-25T01:38:15.172Z,0
2017-09-25T01:39:29.788Z,0
2017-09-25T01:40:29.490Z,0
2017-09-25T01:42:15.277Z,0
2017-09-25T01:44:15.311Z,0
2017-09-25T01:45:15.334Z,0
2017-09-25T01:46:15.352Z,0
2017-09-25T01:47:15.383Z,0
2017-09-25T01:48:15.405Z,0
2017-09-25T01:49:15.419Z,0
2017-09-25T01:50:15.154Z,0
2017-09-25T01:51:15.462Z,0
2017-09-25T01:52:15.485Z,0
2017-09-25T01:53:15.506Z,0
2017-09-25T01:54:15.530Z,0
2017-09-25T01:55:44.741Z,0
2017-09-25T01:56:30.170Z,0
2017-09-25T01:57:15.599Z,0
2017-09-25T01:58:30.212Z,0
2017-09-25T01:59:15.640Z,0
2017-09-25T02:00:15.671Z,0
2017-09-25T02:01:15.373Z,0
2017-09-25T02:02:30.297Z,0
2017-09-25T02:03:30.335Z,0
2017-09-25T02:04:15.758Z,0
2017-09-25T02:05:15.774Z,0
2017-09-25T02:07:15.498Z,0
2017-09-25T02:08:15.873Z,0
2017-09-25T02:09:15.551Z,0
2017-09-25T02:11:30.501Z,0
2017-09-25T02:12:15.617Z,0
2017-09-25T02:13:30.233Z,0
2017-09-25T02:15:15.689Z,0
2017-09-25T02:16:15.706Z,0
2017-09-25T02:17:15.727Z,0
2017-09-25T02:19:15.770Z,0
2017-09-25T02:20:16.111Z,0
2017-09-25T02:21:16.134Z,0
2017-09-25T02:22:15.838Z,0
2017-09-25T02:23:15.548Z,0
2017-09-25T02:24:15.888Z,0
2017-09-25T02:25:16.223Z,0
2017-09-25T02:26:30.833Z,0
2017-09-25T02:27:30.865Z,0
2017-09-25T02:28:30.884Z,0
2017-09-25T02:29:15.997Z,0
2017-09-25T02:30:16.020Z,0
2017-09-25T02:31:16.367Z,0
2017-09-25T02:32:16.430Z,0
2017-09-25T02:33:16.458Z,0
2017-09-25T02:34:16.443Z,0
2017-09-25T02:35:16.130Z,0
2017-09-25T02:36:16.470Z,0
2017-09-25T02:37:31.093Z,0
2017-09-25T02:38:31.151Z,0
2017-09-25T02:39:16.539Z,0
2017-09-25T02:41:31.180Z,0
2017-09-25T02:43:16.631Z,0
2017-09-25T02:44:16.650Z,0
2017-09-25T02:45:30.943Z,0
2017-09-25T02:46:31.286Z,0
2017-09-25T02:47:16.397Z,0
2017-09-25T02:48:16.743Z,0
2017-09-25T02:49:16.766Z,0
2017-09-25T02:50:16.157Z,0
2017-09-25T02:51:16.485Z,0
2017-09-25T02:52:16.828Z,0
2017-09-25T02:53:16.539Z,0
2017-09-25T02:54:16.555Z,0
2017-09-25T02:55:16.262Z,0
2017-09-25T02:56:16.598Z,0
2017-09-25T02:57:16.617Z,0
2017-09-25T02:58:31.237Z,0
2017-09-25T02:59:16.668Z,0
2017-09-25T03:00:17.016Z,0
2017-09-25T03:02:31.645Z,0
2017-09-25T03:03:31.344Z,0
2017-09-25T03:04:17.097Z,0
2017-09-25T03:05:31.439Z,0
2017-09-25T03:06:16.818Z,0
2017-09-25T03:07:17.165Z,0
2017-09-25T03:08:16.572Z,0
2017-09-25T03:09:16.887Z,0
2017-09-25T03:10:16.910Z,0
2017-09-25T03:11:16.932Z,0
2017-09-25T03:12:17.278Z,0
2017-09-25T03:13:16.974Z,0
2017-09-25T03:14:31.593Z,0
2017-09-25T03:15:17.392Z,0
2017-09-25T03:16:16.405Z,0
2017-09-25T03:17:31.979Z,0
2017-09-25T03:18:17.413Z,0
2017-09-25T03:19:17.108Z,0
2017-09-25T03:20:17.129Z,0
2017-09-25T03:21:31.747Z,0
2017-09-25T03:22:17.496Z,0
2017-09-25T03:24:17.536Z,0
2017-09-25T03:25:17.560Z,0
2017-09-25T03:26:17.587Z,0
2017-09-25T03:27:17.288Z,0
2017-09-25T03:28:16.671Z,0
2017-09-25T03:29:17.334Z,0
2017-09-25T03:30:32.278Z,0
2017-09-25T03:31:17.385Z,0
2017-09-25T03:32:17.718Z,0
2017-09-25T03:33:17.424Z,0
2017-09-25T03:34:32.353Z,0
2017-09-25T03:35:32.059Z,0
2017-09-25T03:36:32.397Z,0
2017-09-25T03:37:32.417Z,0
2017-09-25T03:38:17.584Z,0
2017-09-25T03:39:17.875Z,0
2017-09-25T03:40:17.903Z,0
2017-09-25T03:41:17.915Z,0
2017-09-25T03:43:17.645Z,0
2017-09-25T03:44:32.632Z,0
2017-09-25T03:45:18.009Z,0
2017-09-25T03:46:32.624Z,0
2017-09-25T03:47:17.732Z,0
2017-09-25T03:48:18.072Z,0
2017-09-25T03:49:32.687Z,0
2017-09-25T03:50:32.713Z,0
2017-09-25T03:51:18.144Z,0
2017-09-25T03:52:32.431Z,0
2017-09-25T03:53:32.777Z,0
2017-09-25T03:54:17.891Z,0
2017-09-25T03:55:17.909Z,0
2017-09-25T03:56:18.254Z,0
2017-09-25T03:57:18.322Z,0
2017-09-25T03:58:18.290Z,0
2017-09-25T03:59:18.314Z,0
2017-09-25T04:00:18.336Z,0
2017-09-25T04:01:32.635Z,0
2017-09-25T04:03:18.109Z,0
2017-09-25T04:04:18.114Z,0
2017-09-25T04:05:18.453Z,0
2017-09-25T04:06:18.477Z,0
2017-09-25T04:07:18.501Z,0
2017-09-25T04:08:33.107Z,0
2017-09-25T04:09:18.545Z,0
2017-09-25T04:10:18.560Z,0
2017-09-25T04:11:18.585Z,0
2017-09-25T04:12:18.606Z,0
2017-09-25T04:13:18.668Z,0
2017-09-25T04:14:18.645Z,0
2017-09-25T04:15:32.951Z,0
2017-09-25T04:16:18.063Z,0
2017-09-25T04:17:18.402Z,0
2017-09-25T04:18:18.102Z,0
2017-09-25T04:19:18.441Z,0
2017-09-25T04:20:18.148Z,0
2017-09-25T04:21:18.808Z,0
2017-09-25T04:24:18.883Z,0
2017-09-25T04:25:33.499Z,0
2017-09-25T04:26:18.595Z,0
2017-09-25T04:27:18.630Z,0
2017-09-25T04:28:18.324Z,0
2017-09-25T04:29:18.987Z,0
2017-09-25T04:30:18.690Z,0
2017-09-25T04:31:18.722Z,0
2017-09-25T04:32:33.695Z,0
2017-09-25T04:33:33.662Z,0
2017-09-25T04:34:18.784Z,0
2017-09-25T04:35:18.800Z,0
2017-09-25T04:36:18.180Z,0
2017-09-25T04:37:33.754Z,0
2017-09-25T04:38:19.184Z,0
2017-09-25T04:39:18.570Z,0
2017-09-25T04:40:19.229Z,0
2017-09-25T04:41:19.252Z,0
2017-09-25T04:42:19.008Z,0
2017-09-25T04:43:19.298Z,0
2017-09-25T04:44:19.002Z,0
2017-09-25T04:45:19.016Z,0
2017-09-25T04:47:19.387Z,0
2017-09-25T04:48:19.086Z,0
2017-09-25T04:49:33.701Z,0
2017-09-25T04:50:18.492Z,0
2017-09-25T04:51:19.476Z,0
2017-09-25T04:52:19.496Z,0
2017-09-25T04:53:19.514Z,0
2017-09-25T04:54:19.538Z,0
2017-09-25T04:55:19.561Z,0
2017-09-25T04:56:19.315Z,0
2017-09-25T04:58:19.634Z,0
2017-09-25T04:59:19.326Z,0
2017-09-25T05:00:19.672Z,0
2017-09-25T05:01:19.406Z,0
2017-09-25T05:03:19.416Z,5
2017-09-25T05:04:19.441Z,5
2017-09-25T05:05:34.373Z,5
2017-09-25T05:06:19.482Z,5
2017-09-25T05:07:34.098Z,5
2017-09-25T05:08:19.852Z,5
2017-09-25T05:09:19.574Z,5
2017-09-25T05:10:19.577Z,5
2017-09-25T05:11:34.501Z,5
2017-09-25T05:12:19.936Z,10
2017-09-25T05:13:19.648Z,10
2017-09-25T05:14:18.703Z,10
2017-09-25T05:15:19.684Z,5
2017-09-25T05:16:19.384Z,5
2017-09-25T05:17:19.730Z,5
2017-09-25T05:18:20.069Z,5
2017-09-25T05:19:20.088Z,5
2017-09-25T05:20:20.115Z,10
2017-09-25T05:21:49.318Z,10
2017-09-25T05:22:34.429Z,10
2017-09-25T05:23:34.777Z,5
2017-09-25T05:24:33.836Z,5
2017-09-25T05:25:20.230Z,5
2017-09-25T05:27:34.539Z,5
2017-09-25T05:28:20.285Z,5
2017-09-25T05:29:20.003Z,5
2017-09-25T05:30:20.334Z,5
2017-09-25T05:31:20.355Z,5
2017-09-25T05:32:20.376Z,5
2017-09-25T05:33:20.396Z,10
2017-09-25T05:34:20.425Z,10
2017-09-25T05:36:35.061Z,10
2017-09-25T05:38:20.508Z,15
2017-09-25T05:39:20.220Z,10
2017-09-25T05:40:20.552Z,10
2017-09-25T05:41:19.940Z,10
2017-09-25T05:42:20.606Z,10
2017-09-25T05:43:20.307Z,10
2017-09-25T05:44:20.643Z,10
2017-09-25T05:45:20.666Z,15
2017-09-25T05:46:20.684Z,15
2017-09-25T05:47:20.715Z,15
2017-09-25T05:48:20.790Z,15
2017-09-25T05:49:20.436Z,15
2017-09-25T05:50:35.051Z,15
2017-09-25T05:51:20.477Z,15
2017-09-25T05:52:20.505Z,15
2017-09-25T05:53:20.520Z,15
2017-09-25T05:54:20.859Z,15
2017-09-25T05:55:20.926Z,20
2017-09-25T05:56:20.586Z,20
2017-09-25T05:57:20.610Z,20
2017-09-25T05:58:20.632Z,15
2017-09-25T05:59:35.250Z,15
2017-09-25T06:00:20.674Z,15
2017-09-25T06:01:20.702Z,15
2017-09-25T06:02:21.035Z,15
2017-09-25T06:03:20.744Z,15
2017-09-25T06:04:20.798Z,15
2017-09-25T06:05:20.792Z,15
2017-09-25T06:06:21.126Z,15
2017-09-25T06:08:35.444Z,15
2017-09-25T06:09:21.187Z,20
2017-09-25T06:10:21.215Z,20
2017-09-25T06:11:35.828Z,20
2017-09-25T06:12:35.535Z,20
2017-09-25T06:13:20.967Z,20
2017-09-25T06:14:21.310Z,20
2017-09-25T06:15:21.326Z,20
2017-09-25T06:17:35.640Z,25
2017-09-25T06:18:21.388Z,25
2017-09-25T06:19:21.414Z,30
2017-09-25T06:20:20.804Z,30
2017-09-25T06:21:21.465Z,35
2017-09-25T06:22:20.847Z,40
2017-09-25T06:23:20.866Z,40
2017-09-25T06:24:35.802Z,30
2017-09-25T06:25:21.546Z,30
2017-09-25T06:27:35.864Z,30
2017-09-25T06:28:21.295Z,35
2017-09-25T06:29:36.229Z,35
2017-09-25T06:30:35.930Z,35
2017-09-25T06:31:21.365Z,35
2017-09-25T06:32:21.701Z,30
2017-09-25T06:33:21.725Z,30
2017-09-25T06:34:21.743Z,30
2017-09-25T06:36:21.520Z,25
2017-09-25T06:37:21.808Z,25
2017-09-25T06:38:21.833Z,25
2017-09-25T06:39:21.864Z,25
2017-09-25T06:40:36.467Z,25
2017-09-25T06:41:21.588Z,20
2017-09-25T06:42:21.603Z,20
2017-09-25T06:43:21.630Z,20
2017-09-25T06:44:21.654Z,20
2017-09-25T06:45:21.678Z,25
2017-09-25T06:46:21.695Z,25
2017-09-25T06:47:21.722Z,30
2017-09-25T06:48:21.737Z,30
2017-09-25T06:49:21.760Z,30
2017-09-25T06:50:36.705Z,40
2017-09-25T06:51:21.804Z,45
2017-09-25T06:52:36.426Z,45
2017-09-25T06:53:36.448Z,45
2017-09-25T06:54:21.877Z,45
2017-09-25T06:55:21.891Z,45
2017-09-25T06:56:36.835Z,45
2017-09-25T06:57:21.940Z,45
2017-09-25T06:58:36.923Z,45
2017-09-25T06:59:21.671Z,45
2017-09-25T07:00:36.915Z,40
2017-09-25T07:01:22.067Z,35
2017-09-25T07:03:22.394Z,35
2017-09-25T07:04:22.097Z,35
2017-09-25T07:05:37.075Z,30
2017-09-25T07:06:22.464Z,30
2017-09-25T07:07:22.165Z,25
2017-09-25T07:08:37.108Z,25
2017-09-25T07:09:22.534Z,25
2017-09-25T07:10:22.234Z,25
2017-09-25T07:11:37.214Z,25
2017-09-25T07:12:22.602Z,20
2017-09-25T07:13:37.214Z,20
2017-09-25T07:14:22.649Z,20
2017-09-25T07:15:22.031Z,20
2017-09-25T07:16:37.280Z,20
2017-09-25T07:17:37.302Z,20
2017-09-25T07:18:22.727Z,20
2017-09-25T07:20:22.781Z,15
2017-09-25T07:21:37.391Z,15
2017-09-25T07:22:22.189Z,15
2017-09-25T07:23:22.848Z,15
2017-09-25T07:24:22.234Z,15
2017-09-25T07:25:22.252Z,15
2017-09-25T07:26:22.274Z,20
2017-09-25T07:27:22.623Z,20
2017-09-25T07:28:37.550Z,20
2017-09-25T07:29:37.574Z,20
2017-09-25T07:30:37.598Z,25
2017-09-25T07:31:23.029Z,30
2017-09-25T07:32:37.642Z,35
2017-09-25T07:33:23.074Z,40
2017-09-25T07:34:23.090Z,40
2017-09-25T07:36:23.139Z,35
2017-09-25T07:37:22.838Z,30
2017-09-25T07:38:23.183Z,30
2017-09-25T07:39:23.205Z,35
2017-09-25T07:40:22.904Z,35
2017-09-25T07:41:23.246Z,35
2017-09-25T07:42:23.275Z,35
2017-09-25T07:43:37.247Z,35
2017-09-25T07:44:23.315Z,35
2017-09-25T07:45:23.017Z,35
2017-09-25T07:46:23.041Z,35
2017-09-25T07:47:22.746Z,35
2017-09-25T07:48:23.090Z,35
2017-09-25T07:49:23.109Z,35
2017-09-25T07:50:38.040Z,35
2017-09-25T07:51:23.154Z,30
2017-09-25T07:52:22.865Z,30
2017-09-25T07:53:23.521Z,30
2017-09-25T07:54:23.226Z,30
2017-09-25T07:55:23.240Z,30
2017-09-25T07:56:23.266Z,35
2017-09-25T07:57:23.288Z,35
2017-09-25T07:58:23.309Z,35
2017-09-25T08:00:23.036Z,30
2017-09-25T08:01:23.377Z,35
2017-09-25T08:02:23.407Z,35
2017-09-25T08:03:23.109Z,35
2017-09-25T08:04:23.446Z,30
2017-09-25T08:05:23.785Z,30
2017-09-25T08:06:23.811Z,30
2017-09-25T08:07:23.514Z,30
2017-09-25T08:08:23.863Z,25
2017-09-25T08:09:23.559Z,25
2017-09-25T08:10:23.579Z,25
2017-09-25T08:11:23.603Z,20
2017-09-25T08:12:23.629Z,20
2017-09-25T08:14:23.991Z,25
2017-09-25T08:15:38.603Z,25
2017-09-25T08:16:38.310Z,30
2017-09-25T08:17:24.053Z,25
2017-09-25T08:18:24.084Z,30
2017-09-25T08:19:38.377Z,40
2017-09-25T08:20:38.400Z,50
2017-09-25T08:21:24.143Z,50
2017-09-25T08:22:38.442Z,60
2017-09-25T08:23:24.203Z,60
2017-09-25T08:24:23.577Z,60
2017-09-25T08:25:23.926Z,60
2017-09-25T08:26:38.859Z,60
2017-09-25T08:27:24.285Z,60
2017-09-25T08:28:24.305Z,65
2017-09-25T08:29:24.325Z,65
2017-09-25T08:30:38.948Z,65
2017-09-25T08:31:38.646Z,65
2017-09-25T08:32:24.086Z,65
2017-09-25T08:33:24.421Z,65
2017-09-25T08:34:24.494Z,65
2017-09-25T08:35:38.735Z,65
2017-09-25T08:36:39.081Z,65
2017-09-25T08:37:39.101Z,65
2017-09-25T08:38:23.897Z,65
2017-09-25T08:39:24.236Z,65
2017-09-25T08:40:24.259Z,70
2017-09-25T08:41:23.962Z,65
2017-09-25T08:42:23.988Z,65
2017-09-25T08:43:24.331Z,60
2017-09-25T08:44:24.032Z,60
2017-09-25T08:45:24.427Z,60
2017-09-25T08:46:39.314Z,55
2017-09-25T08:47:24.754Z,55
2017-09-25T08:48:24.451Z,55
2017-09-25T08:49:24.469Z,50
2017-09-25T08:50:24.490Z,50
2017-09-25T08:51:24.202Z,50
2017-09-25T08:52:24.855Z,45
2017-09-25T08:54:24.578Z,40
2017-09-25T08:55:24.661Z,40
2017-09-25T08:56:24.630Z,35
2017-09-25T08:57:24.645Z,35
2017-09-25T08:58:25.036Z,35
2017-09-25T08:59:24.061Z,35
2017-09-25T09:01:25.068Z,40
2017-09-25T09:03:25.161Z,40
2017-09-25T09:04:39.723Z,40
2017-09-25T09:05:25.185Z,40
2017-09-25T09:06:25.235Z,45
2017-09-25T09:07:25.238Z,50
2017-09-25T09:08:25.224Z,50
2017-09-25T09:09:24.924Z,50
2017-09-25T09:10:25.263Z,50
2017-09-25T09:11:25.288Z,50
2017-09-25T09:13:25.014Z,50
2017-09-25T09:14:25.035Z,50
2017-09-25T09:15:25.380Z,50
2017-09-25T09:16:40.001Z,45
2017-09-25T09:17:25.441Z,45
2017-09-25T09:18:40.039Z,50
2017-09-25T09:19:25.488Z,50
2017-09-25T09:21:25.564Z,50
2017-09-25T09:22:25.539Z,50
2017-09-25T09:23:40.156Z,45
2017-09-25T09:24:25.269Z,40
2017-09-25T09:25:25.646Z,30
2017-09-25T09:26:25.634Z,25
2017-09-25T09:27:25.654Z,25
2017-09-25T09:28:25.697Z,25
2017-09-25T09:29:25.698Z,25
2017-09-25T09:30:25.728Z,25
2017-09-25T09:31:25.749Z,25
2017-09-25T09:32:25.764Z,25
2017-09-25T09:33:25.802Z,20
2017-09-25T09:34:40.401Z,25
2017-09-25T09:35:25.836Z,25
2017-09-25T09:36:25.870Z,25
2017-09-25T09:37:25.887Z,25
2017-09-25T09:38:25.588Z,30
2017-09-25T09:39:25.925Z,25
2017-09-25T09:40:40.543Z,25
2017-09-25T09:41:25.972Z,25
2017-09-25T09:42:25.995Z,30
2017-09-25T09:43:25.698Z,30
2017-09-25T09:44:25.716Z,30
2017-09-25T09:45:25.744Z,30
2017-09-25T09:46:26.089Z,30
2017-09-25T09:49:25.841Z,35
2017-09-25T09:50:40.765Z,35
2017-09-25T09:52:40.501Z,40
2017-09-25T09:53:40.832Z,40
2017-09-25T09:54:40.857Z,40
2017-09-25T09:55:26.287Z,45
2017-09-25T09:56:25.674Z,50
2017-09-25T09:57:25.700Z,50
2017-09-25T09:58:25.718Z,50
2017-09-25T09:59:25.741Z,45
2017-09-25T10:00:26.082Z,40
2017-09-25T10:03:26.156Z,40
2017-09-25T10:04:25.859Z,45
2017-09-25T10:06:41.129Z,45
2017-09-25T10:07:26.557Z,50
2017-09-25T10:08:26.263Z,50
2017-09-25T10:09:26.614Z,50
2017-09-25T10:11:26.336Z,45
2017-09-25T10:12:25.717Z,45
2017-09-25T10:13:26.060Z,45
2017-09-25T10:14:26.405Z,45
2017-09-25T10:15:26.420Z,50
2017-09-25T10:16:26.769Z,50
2017-09-25T10:17:26.791Z,50
2017-09-25T10:18:26.492Z,55
2017-09-25T10:19:26.515Z,50
2017-09-25T10:20:26.858Z,45
2017-09-25T10:21:41.149Z,40
2017-09-25T10:22:26.578Z,40
2017-09-25T10:24:41.540Z,35
2017-09-25T10:25:41.241Z,30
2017-09-25T10:26:26.997Z,30
2017-09-25T10:27:26.699Z,25
2017-09-25T10:28:41.625Z,25
2017-09-25T10:29:27.059Z,30
2017-09-25T10:30:27.099Z,30
2017-09-25T10:31:26.783Z,35
2017-09-25T10:32:27.173Z,35
2017-09-25T10:33:26.830Z,35
2017-09-25T10:34:27.171Z,40
2017-09-25T10:35:27.196Z,40
2017-09-25T10:36:26.897Z,40
2017-09-25T10:37:26.928Z,35
2017-09-25T10:38:26.939Z,35
2017-09-25T10:39:27.282Z,35
2017-09-25T10:40:41.576Z,35
2017-09-25T10:41:26.697Z,35
2017-09-25T10:42:27.351Z,35
2017-09-25T10:43:27.378Z,30
2017-09-25T10:44:41.983Z,30
2017-09-25T10:45:42.009Z,25
2017-09-25T10:46:27.442Z,25
2017-09-25T10:47:27.466Z,25
2017-09-25T10:48:27.497Z,25
2017-09-25T10:49:27.190Z,25
2017-09-25T10:50:27.535Z,30
2017-09-25T10:51:27.549Z,35
2017-09-25T10:52:27.578Z,40
2017-09-25T10:53:42.190Z,50
2017-09-25T10:55:42.239Z,75
2017-09-25T10:56:27.348Z,80
2017-09-25T10:57:42.280Z,80
2017-09-25T10:59:42.340Z,85
2017-09-25T11:00:27.765Z,90
2017-09-25T11:01:27.459Z,100
2017-09-25T11:02:27.481Z,100
2017-09-25T11:03:27.187Z,100
2017-09-25T11:04:27.853Z,95
2017-09-25T11:05:27.870Z,95
2017-09-25T11:06:27.576Z,100
2017-09-25T11:07:27.598Z,100
2017-09-25T11:08:27.298Z,100
2017-09-25T11:09:42.243Z,105
2017-09-25T11:10:27.663Z,105
2017-09-25T11:11:42.284Z,110
2017-09-25T11:13:42.644Z,110
2017-09-25T11:15:28.105Z,105
2017-09-25T11:16:27.804Z,105
2017-09-25T11:17:28.150Z,115
2017-09-25T11:18:27.850Z,120
2017-09-25T11:19:27.874Z,125
2017-09-25T11:20:42.492Z,125
2017-09-25T11:21:28.233Z,125
2017-09-25T11:22:28.257Z,125
2017-09-25T11:23:27.965Z,125
2017-09-25T11:24:28.298Z,125
2017-09-25T11:25:42.923Z,125
2017-09-25T11:28:27.800Z,130
2017-09-25T11:29:28.102Z,130
2017-09-25T11:30:28.124Z,135
2017-09-25T11:31:28.154Z,135
2017-09-25T11:32:28.172Z,135
2017-09-25T11:33:28.195Z,135
2017-09-25T11:34:28.222Z,145
2017-09-25T11:35:28.563Z,145
2017-09-25T11:36:28.273Z,150
2017-09-25T11:38:27.673Z,135
2017-09-25T11:39:28.652Z,130
2017-09-25T11:41:43.293Z,95
2017-09-25T11:42:27.777Z,95
2017-09-25T11:43:28.111Z,90
2017-09-25T11:44:57.959Z,90
2017-09-25T11:45:43.395Z,85
2017-09-25T11:46:28.497Z,80
2017-09-25T11:47:28.851Z,75
2017-09-25T11:48:28.901Z,65
2017-09-25T11:49:28.253Z,60
2017-09-25T11:50:28.611Z,60
2017-09-25T11:51:28.931Z,50
2017-09-25T11:52:28.964Z,50
2017-09-25T11:53:28.982Z,40
2017-09-25T11:54:28.702Z,30
2017-09-25T11:56:43.324Z,15
2017-09-25T11:57:43.671Z,15
2017-09-25T11:58:29.096Z,20
2017-09-25T11:59:43.724Z,20
2017-09-25T12:00:28.827Z,25
2017-09-25T12:01:29.175Z,25
2017-09-25T12:02:29.191Z,25
2017-09-25T12:04:29.247Z,25
2017-09-25T12:05:29.266Z,25
2017-09-25T12:06:28.969Z,25
2017-09-25T12:07:29.310Z,30
2017-09-25T12:08:29.012Z,40
2017-09-25T12:09:29.036Z,45
2017-09-25T12:10:29.110Z,55
2017-09-25T12:11:29.086Z,55
2017-09-25T12:12:29.106Z,60
2017-09-25T12:13:29.131Z,60
2017-09-25T12:14:29.152Z,60
2017-09-25T12:15:44.090Z,65
2017-09-25T12:17:44.132Z,75
2017-09-25T12:18:29.243Z,80
2017-09-25T12:19:29.266Z,85
2017-09-25T12:20:29.297Z,90
2017-09-25T12:21:28.994Z,90
2017-09-25T12:22:29.654Z,95
2017-09-25T12:23:29.681Z,95
2017-09-25T12:24:29.388Z,95
2017-09-25T12:25:29.408Z,95
2017-09-25T12:26:29.746Z,95
2017-09-25T12:27:44.365Z,95
2017-09-25T12:28:43.427Z,100
2017-09-25T12:29:29.531Z,100
2017-09-25T12:30:44.164Z,100
2017-09-25T12:31:29.870Z,105
2017-09-25T12:32:29.566Z,105
2017-09-25T12:33:44.532Z,110
2017-09-25T12:34:29.294Z,115
2017-09-25T12:35:44.542Z,120
2017-09-25T12:36:29.667Z,125
2017-09-25T12:37:29.681Z,120
2017-09-25T12:38:29.387Z,115
2017-09-25T12:39:29.738Z,110
2017-09-25T12:41:30.104Z,110
2017-09-25T12:42:30.175Z,115
2017-09-25T12:43:30.144Z,115
2017-09-25T12:44:44.807Z,120
2017-09-25T12:45:29.882Z,120
2017-09-25T12:46:29.894Z,115
2017-09-25T12:47:44.507Z,120
2017-09-25T12:48:29.939Z,120
2017-09-25T12:50:29.670Z,110
2017-09-25T12:51:45.133Z,105
2017-09-25T12:52:30.032Z,100
2017-09-25T12:53:30.062Z,95
2017-09-25T12:54:30.076Z,95
2017-09-25T12:55:30.102Z,85
2017-09-25T12:56:30.449Z,80
2017-09-25T12:57:30.181Z,75
2017-09-25T12:58:44.770Z,75
2017-09-25T13:00:44.810Z,75
2017-09-25T13:01:44.833Z,75
2017-09-25T13:02:30.591Z,75
2017-09-25T13:03:30.287Z,80
2017-09-25T13:04:30.630Z,75
2017-09-25T13:05:30.660Z,70
2017-09-25T13:06:45.269Z,65
2017-09-25T13:07:30.069Z,60
2017-09-25T13:08:30.775Z,60
2017-09-25T13:09:30.432Z,65
2017-09-25T13:10:30.772Z,75
2017-09-25T13:11:30.802Z,85
2017-09-25T13:12:30.497Z,90
2017-09-25T13:13:30.528Z,90
2017-09-25T13:14:30.590Z,85
2017-09-25T13:15:45.484Z,80
2017-09-25T13:16:44.864Z,75
2017-09-25T13:17:30.939Z,75
2017-09-25T13:18:30.645Z,60
2017-09-25T13:19:44.937Z,60
2017-09-25T13:20:59.874Z,60
2017-09-25T13:21:30.712Z,60
2017-09-25T13:22:30.736Z,60
2017-09-25T13:23:30.437Z,50
2017-09-25T13:24:30.781Z,50
2017-09-25T13:25:30.500Z,50
2017-09-25T13:26:30.823Z,50
2017-09-25T13:27:31.172Z,50
2017-09-25T13:28:31.230Z,50
2017-09-25T13:29:30.895Z,55
2017-09-25T13:30:31.236Z,55
2017-09-25T13:31:45.858Z,60
2017-09-25T13:32:31.014Z,55
2017-09-25T13:33:31.318Z,55
2017-09-25T13:34:31.021Z,50
2017-09-25T13:35:31.035Z,55
2017-09-25T13:37:45.997Z,50
2017-09-25T13:38:31.107Z,50
2017-09-25T13:39:45.720Z,50
2017-09-25T13:40:31.473Z,55
2017-09-25T13:41:30.858Z,55
2017-09-25T13:42:31.527Z,55
2017-09-25T13:43:31.551Z,55
2017-09-25T13:45:31.594Z,50
2017-09-25T13:46:31.614Z,50
2017-09-25T13:47:31.636Z,50
2017-09-25T13:48:31.658Z,55
2017-09-25T13:49:31.683Z,55
2017-09-25T13:50:31.714Z,55
2017-09-25T13:51:31.731Z,55
2017-09-25T13:52:31.754Z,50
2017-09-25T13:53:31.455Z,50
2017-09-25T13:54:31.508Z,55
2017-09-25T13:55:31.505Z,50
2017-09-25T13:56:31.851Z,50
2017-09-25T13:57:31.882Z,50
2017-09-25T13:58:31.577Z,55
2017-09-25T14:02:35.306Z,70
2017-09-25T14:03:18.472Z,70
2017-09-25T14:04:03.261Z,70
2017-09-25T14:05:03.596Z,70
2017-09-25T14:06:03.709Z,70
2017-09-25T14:07:18.304Z,65
2017-09-25T14:08:04.081Z,65
2017-09-25T14:09:23.326Z,70
2017-09-25T14:10:04.142Z,70
2017-09-25T14:12:33.327Z,80
2017-09-25T14:13:04.207Z,80
2017-09-25T14:14:04.237Z,80
2017-09-25T14:15:03.930Z,80
2017-09-25T14:16:03.947Z,80
2017-09-25T14:17:04.345Z,80
2017-09-25T14:18:04.326Z,80
2017-09-25T14:19:04.356Z,80
2017-09-25T14:20:18.608Z,75
2017-09-25T14:21:04.077Z,70
2017-09-25T14:22:18.986Z,60
2017-09-25T14:23:19.009Z,60
2017-09-25T14:24:04.140Z,55
2017-09-25T14:25:04.485Z,50
2017-09-25T14:26:04.510Z,50
2017-09-25T14:27:18.777Z,45
2017-09-25T14:29:19.173Z,40
2017-09-25T14:30:19.175Z,40
2017-09-25T14:31:04.633Z,35
2017-09-25T14:32:04.325Z,35
2017-09-25T14:34:04.704Z,35
2017-09-25T14:35:04.399Z,30
2017-09-25T14:36:04.749Z,35
2017-09-25T14:37:04.775Z,35
2017-09-25T14:39:04.863Z,35
2017-09-25T14:40:04.837Z,35
2017-09-25T14:42:04.894Z,35
2017-09-25T14:43:04.911Z,35
2017-09-25T14:44:04.934Z,35
2017-09-25T14:45:04.960Z,35
2017-09-25T14:46:04.981Z,35
2017-09-25T14:47:04.672Z,35
2017-09-25T14:48:19.266Z,35
2017-09-25T14:49:05.052Z,35
2017-09-25T14:51:05.096Z,40
2017-09-25T14:52:05.129Z,40
2017-09-25T14:53:05.149Z,40
2017-09-25T14:54:05.172Z,40
2017-09-25T14:55:04.864Z,40
2017-09-25T14:56:19.786Z,40
2017-09-25T14:57:05.240Z,35
2017-09-25T14:58:05.266Z,35
2017-09-25T15:00:05.304Z,30
2017-09-25T15:01:04.998Z,30
2017-09-25T15:02:05.033Z,30
2017-09-25T15:03:05.090Z,25
2017-09-25T15:04:05.070Z,25
2017-09-25T15:05:05.098Z,25
2017-09-25T15:06:04.790Z,20
2017-09-25T15:07:05.473Z,20
2017-09-25T15:08:20.062Z,15
2017-09-25T15:09:05.190Z,15
2017-09-25T15:10:20.111Z,10
2017-09-25T15:11:04.909Z,10
2017-09-25T15:12:19.500Z,10
2017-09-25T15:13:19.851Z,15
2017-09-25T15:14:04.978Z,15
2017-09-25T15:15:19.925Z,15
2017-09-25T15:16:04.696Z,15
2017-09-25T15:17:05.698Z,15
2017-09-25T15:18:05.745Z,15
2017-09-25T15:20:20.334Z,10
2017-09-25T15:21:05.792Z,10
2017-09-25T15:22:05.814Z,15
2017-09-25T15:23:20.079Z,15
2017-09-25T15:24:05.533Z,15
2017-09-25T15:25:05.238Z,20
2017-09-25T15:26:34.719Z,20
2017-09-25T15:27:05.937Z,25
2017-09-25T15:28:20.194Z,30
2017-09-25T15:29:20.218Z,30
2017-09-25T15:31:05.696Z,30
2017-09-25T15:32:06.049Z,35
2017-09-25T15:34:06.096Z,35
2017-09-25T15:35:20.686Z,35
2017-09-25T15:36:06.138Z,35
2017-09-25T15:37:06.158Z,35
2017-09-25T15:38:05.856Z,35
2017-09-25T15:39:06.208Z,35
2017-09-25T15:42:20.511Z,35
2017-09-25T15:43:06.300Z,35
2017-09-25T15:44:06.005Z,35
2017-09-25T15:45:06.020Z,35